首页
METAR-TAF:

METAR-TAF

机场 :

邁諾特, 北达科他州, 美国

纬度: 48-15-34N, 经度: 101-16-49W, 海拔: 523米

当前天气观测

该预报发布于1小时和10分钟前的14:54 UTC
风速7节,风向南转南东
温度 22°C
湿度 83%
气压 1005 hPa
能見度: 16.1公里
天空无云

METAR: KMOT 241454Z 16007KT 10SM CLR 22/19 A2968 RMK AO2 SLP044 T02220189 51037

时间: 11:04 (16:04 UTC)

预报

该预报发布于1小时和59分钟前的14:05 UTC
预报有效从24日的 14点(UTC)到 25日的 12点(UTC)
风速10节,风向东转东南
能見度: 10公里
多云层高于800英尺
从 24日的 1500点(UTC)
风速11节,风向西南,有时为20节阵风
能見度: 10公里
散云层高于7000英尺
多云层高于20000英尺
从 24日的 1700点(UTC)
风速14节,风向西,有时为23节阵风
能見度: 10公里
少量云层高于10000英尺
散云层高于25000英尺
从 25日的 0100点(UTC)
风速9节,风向西转西北
能見度: 10公里
天空无云

TAF: KMOT 241405Z 2414/2512 12010KT P6SM BKN008 FM241500 22011G20KT P6SM SCT070 BKN200 FM241700 27014G23KT P6SM FEW100 SCT250 FM250100 29009KT P6SM SKC

超过4000个机场的气象观测和天气预报(METAR&TAF报告)。

可查询的气象台以黄色和红色小点在地图上表示。

将鼠标移到小点上方,可查看气象台名称。

然后点击查看天气观测和预报。

如需切换地图:点击带黑十字的绿色按钮放大地图;点击带横线的绿色按钮缩小地图;或者点击绿色箭头查看邻近地区的地图。


METAR-TAF: